Time;durP1;ratioP1;P1;durP2;ratioP2;P2;SDS_P1;SDS_P2;PMS_P1;PMS_P2;Temp;Humidity;BMP_temperature;BMP_pressure;BME280_temperature;BME280_humidity;BME280_pressure;Samples;Min_cycle;Max_cycle;Signal;HPM_P1;HPM_P2
2022/10/14 06:27:10;;;;;;;9.47;2.73;;;10.00;99.90;;;;;;5163590;27;20689;-82
2022/10/14 06:29:39;;;;;;;2.50;2.30;;;10.00;99.90;;;;;;5162162;27;20178;-83
2022/10/14 06:32:06;;;;;;;8.30;2.57;;;10.00;99.90;;;;;;5163824;27;20180;-83
2022/10/14 06:34:32;;;;;;;5.53;2.80;;;10.00;99.90;;;;;;5162945;27;20658;-83
2022/10/14 07:08:21;;;;;;;3.23;1.50;;;10.90;99.90;;;;;;5148972;27;20339;-82
2022/10/14 07:10:47;;;;;;;3.30;1.53;;;10.90;99.90;;;;;;5157409;27;20159;-80
2022/10/14 07:13:13;;;;;;;4.90;1.70;;;10.90;99.90;;;;;;5156745;27;20185;-82
2022/10/14 07:15:39;;;;;;;5.97;1.50;;;11.00;99.90;;;;;;5147819;28;20167;-83
2022/10/14 07:18:05;;;;;;;3.23;1.80;;;11.10;99.90;;;;;;5137823;27;20187;-83
2022/10/14 07:20:32;;;;;;;4.17;1.97;;;11.10;99.90;;;;;;5136446;28;20229;-83
2022/10/14 07:22:58;;;;;;;2.70;1.57;;;11.20;99.90;;;;;;5137539;27;20194;-84
2022/10/14 07:25:24;;;;;;;3.13;1.47;;;11.20;99.90;;;;;;5136727;28;20175;-83
2022/10/14 07:27:52;;;;;;;1.70;1.43;;;11.30;99.90;;;;;;5137055;28;20301;-83
2022/10/14 07:30:18;;;;;;;3.07;2.10;;;11.30;99.90;;;;;;5138169;27;20228;-84
2022/10/14 07:32:44;;;;;;;5.63;3.00;;;11.30;99.90;;;;;;5143610;28;20181;-83
2022/10/14 07:35:10;;;;;;;5.83;3.27;;;11.50;99.90;;;;;;5144920;27;20171;-82
2022/10/14 07:37:35;;;;;;;5.20;2.93;;;11.60;99.90;;;;;;5137537;27;20224;-82
2022/10/14 07:40:01;;;;;;;2.77;1.90;;;11.70;99.90;;;;;;5138301;27;20171;-83
2022/10/14 07:42:27;;;;;;;7.03;1.80;;;11.80;99.90;;;;;;5137420;28;20175;-83
2022/10/14 07:44:53;;;;;;;4.93;1.63;;;12.00;99.90;;;;;;5137219;28;20199;-84
2022/10/14 07:47:19;;;;;;;3.03;1.53;;;12.10;99.90;;;;;;5137136;28;20260;-84
2022/10/14 07:49:45;;;;;;;1.97;1.13;;;12.30;99.90;;;;;;5149599;28;20174;-83
2022/10/14 07:52:11;;;;;;;2.67;1.43;;;12.50;99.90;;;;;;5140117;27;20178;-84
2022/10/14 07:54:36;;;;;;;2.50;1.30;;;12.70;99.90;;;;;;5138174;28;20178;-84
2022/10/14 07:57:03;;;;;;;2.17;1.27;;;12.80;99.90;;;;;;5138383;28;20198;-84
2022/10/14 07:59:28;;;;;;;2.47;1.40;;;13.10;99.90;;;;;;5140058;28;20185;-84
2022/10/14 08:01:55;;;;;;;4.27;1.50;;;13.40;99.90;;;;;;5140709;27;20194;-83
2022/10/14 08:04:22;;;;;;;3.27;1.20;;;13.80;99.90;;;;;;5138278;28;20232;-84
2022/10/14 08:06:49;;;;;;;3.37;0.83;;;14.10;99.90;;;;;;5139977;27;20223;-87
2022/10/14 08:09:15;;;;;;;1.40;1.00;;;14.20;99.90;;;;;;5139470;27;20254;-84
2022/10/14 08:11:42;;;;;;;1.17;1.07;;;14.10;99.90;;;;;;5138539;28;20541;-86
2022/10/14 08:14:07;;;;;;;2.00;1.10;;;14.00;99.90;;;;;;5140737;27;20208;-85
2022/10/14 08:16:34;;;;;;;1.27;0.83;;;14.10;99.90;;;;;;5139175;28;20179;-85
2022/10/14 08:19:03;;;;;;;5.07;1.07;;;14.20;99.90;;;;;;5129404;27;20175;-84
2022/10/14 08:21:29;;;;;;;1.73;1.17;;;14.40;99.90;;;;;;5124513;28;20199;-84
2022/10/14 08:23:55;;;;;;;1.10;1.03;;;14.30;99.90;;;;;;5123380;28;20652;-84
2022/10/14 08:26:34;;;;;;;2.23;1.10;;;14.70;99.90;;;;;;5124376;28;20223;-85
2022/10/14 08:29:04;;;;;;;1.33;1.23;;;15.30;99.90;;;;;;5124787;28;20262;-83
2022/10/14 08:31:31;;;;;;;1.20;1.10;;;15.60;99.90;;;;;;5124500;28;20160;-84
2022/10/14 08:33:56;;;;;;;2.93;1.20;;;15.80;99.90;;;;;;5124210;28;20538;-84
2022/10/14 08:36:22;;;;;;;4.07;3.27;;;15.70;99.90;;;;;;5123171;28;20187;-83
2022/10/14 08:38:51;;;;;;;2.50;1.70;;;16.40;99.90;;;;;;5123201;28;20202;-85
2022/10/14 08:41:34;;;;;;;2.40;1.40;;;16.70;99.90;;;;;;5122982;28;20189;-85
2022/10/14 08:44:23;;;;;;;4.97;2.60;;;16.70;99.90;;;;;;5123114;28;20189;-86
2022/10/14 08:46:55;;;;;;;3.13;1.67;;;16.40;99.90;;;;;;5123248;28;20259;-83
2022/10/14 08:49:23;;;;;;;3.30;1.30;;;16.30;99.90;;;;;;5123680;28;20222;-84
2022/10/14 08:52:06;;;;;;;1.60;1.50;;;16.40;99.90;;;;;;5122838;28;20550;-83
2022/10/14 08:54:49;;;;;;;2.37;1.90;;;16.30;99.90;;;;;;5122592;28;20648;-84
2022/10/14 08:57:37;;;;;;;1.83;1.10;;;16.30;99.90;;;;;;5123437;28;20204;-83
2022/10/14 09:00:03;;;;;;;2.70;1.27;;;16.00;99.90;;;;;;5121983;28;20171;-84
2022/10/14 09:02:47;;;;;;;2.40;1.33;;;16.00;99.90;;;;;;5121860;28;20184;-81
2022/10/14 09:05:15;;;;;;;2.17;1.50;;;16.00;99.90;;;;;;5120202;28;20203;-83
2022/10/14 09:07:42;;;;;;;1.50;1.30;;;15.70;99.90;;;;;;5120942;28;20678;-83
2022/10/14 09:10:14;;;;;;;4.00;1.30;;;15.70;99.90;;;;;;5119948;28;20208;-82
2022/10/14 09:12:41;;;;;;;2.77;1.63;;;15.70;99.90;;;;;;5120402;28;20244;-83
2022/10/14 09:15:08;;;;;;;2.13;1.47;;;15.50;99.90;;;;;;5120708;28;20185;-85
2022/10/14 09:17:51;;;;;;;1.73;1.33;;;15.40;99.90;;;;;;5120809;28;20204;-84
2022/10/14 09:20:17;;;;;;;4.57;1.40;;;15.40;99.90;;;;;;5122494;28;20184;-84
2022/10/14 09:22:43;;;;;;;1.87;1.40;;;15.40;99.90;;;;;;5120497;28;20603;-83
2022/10/14 09:25:24;;;;;;;9.57;1.30;;;15.40;99.90;;;;;;5120851;28;20241;-83
2022/10/14 09:27:50;;;;;;;2.50;1.30;;;15.50;99.90;;;;;;5120680;28;20689;-83
2022/10/14 09:30:17;;;;;;;2.73;1.30;;;15.50;99.90;;;;;;5121792;28;20177;-83
2022/10/14 09:32:49;;;;;;;1.70;1.20;;;15.60;99.90;;;;;;5122490;28;20640;-82
2022/10/14 09:35:34;;;;;;;5.40;1.23;;;15.70;99.90;;;;;;5122441;28;20176;-83
2022/10/14 09:38:00;;;;;;;1.90;1.13;;;15.70;99.90;;;;;;5121572;28;20196;-83
2022/10/14 09:40:38;;;;;;;2.07;1.23;;;15.80;99.90;;;;;;5121935;28;20182;-85
2022/10/14 09:43:16;;;;;;;1.93;1.20;;;15.90;99.90;;;;;;5121140;28;20184;-84
2022/10/14 09:45:49;;;;;;;2.03;1.20;;;15.90;99.90;;;;;;5122458;28;20235;-84
2022/10/14 09:48:31;;;;;;;3.37;1.30;;;16.00;99.90;;;;;;5122236;28;20214;-82
2022/10/14 09:50:58;;;;;;;1.20;1.10;;;16.10;99.90;;;;;;5121022;28;20168;-86
2022/10/14 09:53:33;;;;;;;2.93;1.60;;;16.10;99.90;;;;;;5119978;28;20195;-84
2022/10/14 09:56:01;;;;;;;1.70;1.17;;;16.20;99.90;;;;;;5120647;28;20183;-82
2022/10/14 09:58:47;;;;;;;2.27;1.47;;;16.40;99.90;;;;;;5120192;28;20216;-84
2022/10/14 10:01:39;;;;;;;3.97;2.03;;;16.60;99.90;;;;;;5120447;28;20175;-83
2022/10/14 10:04:56;;;;;;;1.20;1.10;;;16.50;99.90;;;;;;5119791;28;20171;-85
2022/10/14 10:07:29;;;;;;;2.37;1.30;;;16.40;99.90;;;;;;5087494;28;20263;-85
2022/10/14 10:09:57;;;;;;;1.83;1.33;;;16.50;99.90;;;;;;5122374;28;20297;-85
2022/10/14 10:12:29;;;;;;;1.77;1.30;;;16.60;99.90;;;;;;5120523;28;20294;-84
2022/10/14 10:14:57;;;;;;;2.93;1.40;;;16.50;99.90;;;;;;5120604;28;20179;-83
2022/10/14 10:17:23;;;;;;;1.97;1.10;;;16.50;99.90;;;;;;5120492;28;20252;-83
2022/10/14 10:19:51;;;;;;;1.47;1.13;;;16.60;99.90;;;;;;5120664;28;20181;-85
2022/10/14 10:22:25;;;;;;;3.33;1.60;;;16.90;99.90;;;;;;5123495;28;20173;-83
2022/10/14 10:25:00;;;;;;;3.50;1.53;;;17.30;99.90;;;;;;5122490;28;20176;-85
2022/10/14 10:27:35;;;;;;;6.70;1.70;;;17.60;99.90;;;;;;5122348;28;20274;-84
2022/10/14 10:30:16;;;;;;;1.70;1.57;;;17.70;99.90;;;;;;5123544;28;20176;-85
2022/10/14 10:33:00;;;;;;;2.43;1.00;;;17.60;99.90;;;;;;5128465;28;20170;-78
2022/10/14 10:35:42;;;;;;;3.20;1.13;;;17.20;99.90;;;;;;5137679;28;20162;-81
2022/10/14 10:38:13;;;;;;;1.47;1.30;;;16.90;99.90;;;;;;5136114;28;20181;-81
2022/10/14 10:41:04;;;;;;;4.50;1.00;;;16.60;99.90;;;;;;5119632;28;20604;-84
2022/10/14 10:44:17;;;;;;;2.33;1.10;;;16.40;99.90;;;;;;5120030;28;20600;-82
2022/10/14 10:47:11;;;;;;;1.23;1.10;;;16.40;99.90;;;;;;5073386;28;20655;-82
2022/10/14 10:49:52;;;;;;;1.97;1.77;;;16.30;99.90;;;;;;5120348;28;20200;-84
2022/10/14 10:52:47;;;;;;;3.87;2.20;;;16.30;99.90;;;;;;5119823;28;20182;-83
2022/10/14 10:55:47;;;;;;;3.53;2.43;;;16.10;99.90;;;;;;5120480;28;20168;-86
2022/10/14 10:58:26;;;;;;;1.77;1.43;;;16.00;99.90;;;;;;5121892;28;20669;-85
2022/10/14 11:01:00;;;;;;;6.10;1.70;;;15.90;99.90;;;;;;5120630;28;20551;-86
2022/10/14 11:03:50;;;;;;;3.03;1.30;;;15.80;99.90;;;;;;5121003;28;20538;-83
2022/10/14 11:12:21;;;;;;;7.10;1.27;;;15.50;99.90;;;;;;5123080;28;20651;-84
2022/10/14 11:15:20;;;;;;;1.17;1.07;;;15.50;99.90;;;;;;5120669;28;20206;-85
2022/10/14 11:18:03;;;;;;;1.97;1.17;;;15.40;99.90;;;;;;5110290;28;20213;-84
2022/10/14 11:21:04;;;;;;;1.77;1.20;;;15.40;99.90;;;;;;5119583;28;20161;-84
2022/10/14 11:23:48;;;;;;;1.87;1.00;;;15.40;99.90;;;;;;5084943;28;20188;-83
2022/10/14 11:26:19;;;;;;;1.57;1.00;;;15.40;99.90;;;;;;5115605;28;20572;-86
2022/10/14 11:28:58;;;;;;;3.23;1.00;;;15.40;99.90;;;;;;5118472;28;20192;-83
2022/10/14 11:31:30;;;;;;;2.63;1.20;;;15.40;99.90;;;;;;5118526;28;20512;-83
2022/10/14 11:33:59;;;;;;;1.80;1.17;;;15.40;99.90;;;;;;5117836;28;20217;-83
2022/10/14 11:37:04;;;;;;;2.40;1.20;;;15.30;99.90;;;;;;5117032;28;20184;-85
2022/10/14 11:39:48;;;;;;;1.63;1.30;;;15.30;99.90;;;;;;5117603;28;20164;-84
2022/10/14 11:42:25;;;;;;;2.03;1.00;;;15.30;99.90;;;;;;5119388;28;20165;-84
2022/10/14 11:45:05;;;;;;;3.33;1.40;;;15.30;99.90;;;;;;5121602;28;20176;-88
2022/10/14 11:47:34;;;;;;;5.00;2.33;;;15.30;99.90;;;;;;5115685;28;20215;-82
2022/10/14 11:50:21;;;;;;;7.47;4.97;;;15.20;99.90;;;;;;5115121;28;20177;-82
2022/10/14 11:53:15;;;;;;;3.00;2.10;;;15.20;99.90;;;;;;5118099;28;20161;-83
2022/10/14 11:55:57;;;;;;;1.97;1.30;;;15.20;99.90;;;;;;5121099;27;20160;-83
2022/10/14 11:58:25;;;;;;;17.03;8.97;;;15.10;99.90;;;;;;5121551;28;20544;-82
2022/10/14 12:01:11;;;;;;;14.40;8.27;;;15.10;99.90;;;;;;5122280;28;20179;-85
2022/10/14 12:03:54;;;;;;;13.03;6.93;;;15.10;99.90;;;;;;5120258;28;20225;-84
2022/10/14 12:06:33;;;;;;;8.37;4.33;;;15.10;99.90;;;;;;5118748;28;20313;-83
2022/10/14 12:09:12;;;;;;;10.07;5.57;;;15.00;99.90;;;;;;5119678;28;20230;-83
2022/10/14 12:11:44;;;;;;;30.17;15.30;;;14.70;99.90;;;;;;5120815;28;20168;-84
2022/10/14 12:14:13;;;;;;;38.97;21.67;;;14.60;99.90;;;;;;5122365;28;20615;-83
2022/10/14 12:16:42;;;;;;;51.27;26.63;;;14.60;99.90;;;;;;5120940;28;20184;-82
2022/10/14 12:19:10;;;;;;;65.00;29.10;;;14.70;99.90;;;;;;5122047;28;20184;-83
2022/10/14 12:21:57;;;;;;;68.23;32.93;;;14.70;99.90;;;;;;5120558;28;20181;-83
2022/10/14 12:24:31;;;;;;;32.33;16.37;;;14.80;99.90;;;;;;5121913;28;20176;-82
2022/10/14 12:27:00;;;;;;;4.73;3.70;;;14.80;99.90;;;;;;5119039;28;20198;-82
2022/10/14 12:29:46;;;;;;;5.63;3.93;;;14.90;99.90;;;;;;5119310;28;20245;-82
2022/10/14 12:32:19;;;;;;;2.53;1.50;;;14.90;99.90;;;;;;5119170;28;20173;-86
2022/10/14 12:34:56;;;;;;;1.70;1.60;;;14.90;99.90;;;;;;5119641;28;20178;-82
2022/10/14 12:37:30;;;;;;;7.10;2.20;;;15.00;99.90;;;;;;5119757;28;20257;-84
2022/10/14 12:40:05;;;;;;;2.90;1.90;;;15.00;99.90;;;;;;5120343;28;20168;-83
2022/10/14 12:42:56;;;;;;;2.57;1.63;;;14.90;99.90;;;;;;5119939;28;20179;-83
2022/10/14 12:45:25;;;;;;;2.33;1.90;;;14.80;99.90;;;;;;5114840;28;20193;-85
2022/10/14 12:48:15;;;;;;;3.23;2.17;;;14.70;99.90;;;;;;5120117;28;20279;-82
2022/10/14 12:50:42;;;;;;;4.47;2.13;;;14.60;99.90;;;;;;5119319;28;20637;-81
2022/10/14 12:53:28;;;;;;;3.70;1.83;;;14.40;99.90;;;;;;5118160;28;20590;-84
2022/10/14 12:55:56;;;;;;;2.70;1.80;;;14.30;99.90;;;;;;5118635;28;20524;-82
2022/10/14 12:58:25;;;;;;;2.80;1.80;;;14.10;99.90;;;;;;5119701;28;20192;-82
2022/10/14 13:01:15;;;;;;;3.07;2.40;;;14.00;99.90;;;;;;5119363;28;20629;-82
2022/10/14 13:04:17;;;;;;;5.27;2.20;;;13.90;99.90;;;;;;5118728;28;20179;-84
2022/10/14 13:06:43;;;;;;;2.37;1.57;;;14.00;99.90;;;;;;5061913;28;20239;-83
2022/10/14 13:09:12;;;;;;;2.40;1.50;;;14.00;99.90;;;;;;5117269;28;20695;-82
2022/10/14 13:11:42;;;;;;;2.07;1.33;;;14.10;99.90;;;;;;5128011;28;20179;-82
2022/10/14 13:14:21;;;;;;;2.67;1.97;;;14.20;99.90;;;;;;5128508;28;20168;-84
2022/10/14 13:16:50;;;;;;;4.27;1.90;;;14.20;99.90;;;;;;5117294;28;20175;-83
2022/10/14 13:19:37;;;;;;;2.37;1.50;;;14.30;99.90;;;;;;5119683;28;20184;-84
2022/10/14 13:22:24;;;;;;;2.60;1.57;;;14.20;99.90;;;;;;5119407;28;20611;-85
2022/10/14 13:24:50;;;;;;;4.77;2.03;;;14.20;99.90;;;;;;5123009;28;20616;-79
2022/10/14 13:27:39;;;;;;;3.00;1.87;;;14.10;99.90;;;;;;5134259;28;20234;-79
2022/10/14 13:30:17;;;;;;;2.90;1.90;;;14.20;99.90;;;;;;5129012;28;20168;-84
2022/10/14 13:32:58;;;;;;;4.67;1.73;;;14.20;99.90;;;;;;5118196;28;20180;-84
2022/10/14 13:35:30;;;;;;;4.03;1.50;;;14.30;99.90;;;;;;5118526;28;20155;-84
2022/10/14 13:37:58;;;;;;;1.60;1.40;;;14.30;99.90;;;;;;5117717;28;20199;-83
2022/10/14 13:40:33;;;;;;;7.27;2.50;;;14.40;99.90;;;;;;5117582;28;20536;-84
2022/10/14 13:43:01;;;;;;;3.23;1.70;;;14.30;99.90;;;;;;5116767;28;20209;-82
2022/10/14 13:45:33;;;;;;;4.40;1.80;;;14.40;99.90;;;;;;5116601;28;20233;-83
2022/10/14 13:48:00;;;;;;;3.10;1.73;;;14.50;99.90;;;;;;5118603;28;20215;-85
2022/10/14 13:50:32;;;;;;;6.37;2.10;;;14.50;99.90;;;;;;5120299;28;20197;-86
2022/10/14 13:53:02;;;;;;;13.47;2.73;;;14.50;99.90;;;;;;5118467;28;20172;-85
2022/10/14 13:55:29;;;;;;;4.60;2.10;;;14.70;99.90;;;;;;5120737;28;20263;-82
2022/10/14 13:58:13;;;;;;;5.93;2.43;;;14.70;99.90;;;;;;5122132;28;20229;-86
2022/10/14 14:00:57;;;;;;;3.23;1.87;;;14.80;99.90;;;;;;5122538;28;20192;-85
2022/10/14 14:03:28;;;;;;;3.20;1.77;;;14.80;99.90;;;;;;5124276;27;20584;-86
2022/10/14 14:05:54;;;;;;;2.13;1.43;;;14.80;99.90;;;;;;5124307;27;20179;-85
2022/10/14 14:08:30;;;;;;;2.90;1.70;;;14.80;99.90;;;;;;5124774;28;20233;-85
2022/10/14 14:11:01;;;;;;;3.67;1.57;;;14.70;99.90;;;;;;5125026;28;20248;-87
2022/10/14 14:13:32;;;;;;;1.30;1.17;;;14.70;99.90;;;;;;5122284;28;20172;-84
2022/10/14 14:15:58;;;;;;;5.00;1.60;;;14.70;99.90;;;;;;5118423;28;20180;-86
2022/10/14 14:18:35;;;;;;;4.63;1.70;;;14.70;99.90;;;;;;5117208;28;20539;-82
2022/10/14 14:21:02;;;;;;;2.47;1.40;;;14.60;99.90;;;;;;5099730;28;20177;-79
2022/10/14 14:23:29;;;;;;;10.47;7.50;;;14.60;99.90;;;;;;5119633;28;20188;-82
2022/10/14 14:25:56;;;;;;;5.33;2.07;;;14.60;99.90;;;;;;5117807;28;20177;-84
2022/10/14 14:28:23;;;;;;;7.07;2.43;;;14.60;99.90;;;;;;5118046;28;20207;-83
2022/10/14 14:30:54;;;;;;;7.97;6.63;;;14.60;99.90;;;;;;5118054;28;20172;-82
2022/10/14 14:33:34;;;;;;;6.67;2.53;;;14.60;99.90;;;;;;5119383;28;20591;-84
2022/10/14 14:36:08;;;;;;;5.03;2.40;;;14.60;99.90;;;;;;5112969;28;20241;-84
2022/10/14 14:38:36;;;;;;;3.23;2.03;;;14.50;99.90;;;;;;5116867;28;20696;-84
2022/10/14 14:41:22;;;;;;;5.97;2.30;;;14.50;99.90;;;;;;5117998;28;20171;-84
2022/10/14 14:44:10;;;;;;;8.20;2.60;;;14.50;99.90;;;;;;5119537;28;20168;-86
2022/10/14 14:46:38;;;;;;;3.70;2.27;;;14.40;99.90;;;;;;5118394;28;20299;-83
2022/10/14 14:49:06;;;;;;;4.97;2.20;;;14.40;99.90;;;;;;5117562;28;20566;-83
2022/10/14 14:51:42;;;;;;;2.97;2.10;;;14.40;99.90;;;;;;5117773;28;20182;-82
2022/10/14 14:54:16;;;;;;;5.87;2.23;;;14.40;99.90;;;;;;5117508;28;20155;-83
2022/10/14 14:57:04;;;;;;;6.03;2.00;;;14.30;99.90;;;;;;5115808;28;20212;-82
2022/10/14 14:59:41;;;;;;;5.23;2.03;;;14.30;99.90;;;;;;5115786;28;20684;-83
2022/10/14 15:02:17;;;;;;;4.73;2.17;;;14.20;99.90;;;;;;5117769;28;20575;-82
2022/10/14 15:04:43;;;;;;;7.80;2.77;;;14.20;99.90;;;;;;5117857;28;20217;-82
2022/10/14 15:07:22;;;;;;;3.93;2.70;;;14.20;99.90;;;;;;5117081;28;20687;-82
2022/10/14 15:09:52;;;;;;;10.13;3.40;;;14.10;99.90;;;;;;5118960;28;20171;-82
2022/10/14 15:12:29;;;;;;;4.73;3.50;;;14.10;99.90;;;;;;5118913;28;20186;-81
2022/10/14 15:14:58;;;;;;;7.00;3.83;;;14.10;99.90;;;;;;5118069;28;20175;-82
2022/10/14 15:17:28;;;;;;;6.57;3.53;;;14.10;99.90;;;;;;5116584;28;20560;-82
2022/10/14 15:19:56;;;;;;;9.90;4.93;;;14.10;99.90;;;;;;5115718;28;20179;-82
2022/10/14 15:22:35;;;;;;;4.03;2.93;;;14.10;99.90;;;;;;5116548;28;20653;-81
2022/10/14 15:25:00;;;;;;;5.53;2.80;;;14.10;99.90;;;;;;5115965;28;20667;-82
2022/10/14 15:27:51;;;;;;;7.87;3.90;;;14.10;99.90;;;;;;5115158;28;20207;-82
2022/10/14 15:30:35;;;;;;;4.67;2.60;;;14.00;99.90;;;;;;5113715;28;20188;-81
2022/10/14 15:33:21;;;;;;;3.20;2.80;;;14.00;99.90;;;;;;5120165;28;20160;-82
2022/10/14 15:35:56;;;;;;;5.63;2.83;;;13.90;99.90;;;;;;5119759;28;20168;-82
2022/10/14 15:38:23;;;;;;;8.63;6.57;;;13.90;99.90;;;;;;5120948;28;20233;-81
2022/10/14 15:40:49;;;;;;;5.27;2.87;;;13.90;99.90;;;;;;5121135;28;20198;-82
2022/10/14 15:43:20;;;;;;;4.80;4.00;;;13.90;99.90;;;;;;5119722;28;20179;-83
2022/10/14 15:48:44;;;;;;;27.93;22.70;;;13.90;99.90;;;;;;5121927;28;20202;-82
2022/10/14 15:51:18;;;;;;;26.77;21.93;;;13.90;99.90;;;;;;5121096;28;20163;-83
2022/10/14 15:53:44;;;;;;;4.97;3.50;;;13.80;99.90;;;;;;5120431;28;20182;-82
2022/10/14 15:56:10;;;;;;;5.37;3.23;;;13.80;99.90;;;;;;5120141;28;20172;-82
2022/10/14 15:58:36;;;;;;;4.40;2.30;;;13.80;99.90;;;;;;5120777;28;20351;-80
2022/10/14 16:01:03;;;;;;;19.77;13.87;;;13.80;99.90;;;;;;5121598;28;20175;-82
2022/10/14 16:03:30;;;;;;;6.03;2.80;;;13.80;99.90;;;;;;5120009;28;20176;-83
2022/10/14 16:05:57;;;;;;;7.63;2.87;;;13.80;99.90;;;;;;5122442;28;20174;-82
2022/10/14 16:08:22;;;;;;;3.80;3.17;;;13.70;99.90;;;;;;5121724;28;20207;-83
2022/10/14 16:10:48;;;;;;;7.43;3.80;;;13.70;99.90;;;;;;5123470;28;20164;-82
2022/10/14 16:13:14;;;;;;;6.00;3.97;;;13.70;99.90;;;;;;5126483;28;20526;-82
2022/10/14 16:15:49;;;;;;;4.87;3.13;;;13.60;99.90;;;;;;5134470;28;20177;-82
2022/10/14 16:18:17;;;;;;;6.43;3.93;;;13.60;99.90;;;;;;5139693;28;20217;-81
2022/10/14 16:20:43;;;;;;;6.27;4.63;;;13.60;99.90;;;;;;5132663;28;20175;-82
2022/10/14 16:23:14;;;;;;;7.87;5.57;;;13.50;99.90;;;;;;5119563;28;20183;-82
2022/10/14 16:25:43;;;;;;;12.57;6.87;;;13.50;99.90;;;;;;5119626;28;20160;-81
2022/10/14 16:28:10;;;;;;;5.10;3.03;;;13.40;99.90;;;;;;5120701;28;20206;-82
2022/10/14 16:30:38;;;;;;;5.70;3.87;;;13.40;99.90;;;;;;5121304;28;20174;-82
2022/10/14 16:33:04;;;;;;;35.10;20.70;;;13.50;99.90;;;;;;5120787;28;20180;-83
2022/10/14 16:35:30;;;;;;;41.73;25.67;;;13.40;99.90;;;;;;5120395;28;20167;-83
2022/10/14 16:37:55;;;;;;;11.47;6.67;;;13.40;99.90;;;;;;5120537;28;20238;-84
2022/10/14 16:40:21;;;;;;;13.40;10.63;;;13.40;99.90;;;;;;5119273;28;20206;-83
2022/10/14 16:42:47;;;;;;;10.07;7.77;;;13.40;99.90;;;;;;5120301;28;20249;-84
2022/10/14 16:45:13;;;;;;;25.17;17.73;;;13.30;99.90;;;;;;5120999;28;20204;-84
2022/10/14 16:47:39;;;;;;;9.83;6.93;;;13.30;99.90;;;;;;5119808;28;20238;-84
2022/10/14 16:50:06;;;;;;;7.47;5.23;;;13.30;99.90;;;;;;5119917;28;20167;-82
2022/10/14 16:53:39;;;;;;;26.73;16.03;;;13.30;99.90;;;;;;5119713;28;20168;-84
2022/10/14 16:55:18;;;;;;;11.10;6.17;;;13.30;99.90;;;;;;5121183;28;20186;-83
2022/10/14 16:57:44;;;;;;;48.80;27.50;;;13.30;99.90;;;;;;5119967;28;20248;-84
2022/10/14 17:00:10;;;;;;;10.33;5.63;;;13.30;99.90;;;;;;5123761;28;20594;-84
2022/10/14 17:02:36;;;;;;;4.30;3.17;;;13.30;99.90;;;;;;5121679;28;20207;-84
2022/10/14 17:05:02;;;;;;;6.30;3.00;;;13.20;99.90;;;;;;5122449;28;20178;-83
2022/10/14 17:07:27;;;;;;;28.00;15.40;;;13.30;99.90;;;;;;5121977;28;20206;-83
2022/10/14 17:09:53;;;;;;;8.73;5.40;;;13.20;99.90;;;;;;5122493;28;20512;-83
2022/10/14 17:12:19;;;;;;;9.17;8.23;;;13.30;99.90;;;;;;5122153;28;20244;-83
2022/10/14 17:14:45;;;;;;;9.33;8.33;;;13.30;99.90;;;;;;5123152;28;20635;-83
2022/10/14 17:17:11;;;;;;;5.27;4.73;;;13.30;99.90;;;;;;5121361;28;20605;-84
2022/10/14 17:19:37;;;;;;;4.70;3.87;;;13.30;99.90;;;;;;5123509;28;20171;-83
2022/10/14 17:22:03;;;;;;;7.73;6.43;;;13.30;99.90;;;;;;5121378;28;20190;-84
2022/10/14 17:24:29;;;;;;;4.00;3.60;;;13.30;99.90;;;;;;5121293;28;20172;-84
2022/10/14 17:26:55;;;;;;;5.20;2.40;;;13.30;99.90;;;;;;5121695;28;20188;-83
2022/10/14 17:29:21;;;;;;;3.70;2.30;;;13.30;99.90;;;;;;5121998;28;20167;-84
2022/10/14 17:31:47;;;;;;;3.47;2.63;;;13.30;99.90;;;;;;5121625;28;20171;-84
2022/10/14 17:34:12;;;;;;;3.10;2.63;;;13.30;99.90;;;;;;5123101;28;20178;-83
2022/10/14 17:36:40;;;;;;;4.57;2.07;;;13.30;99.90;;;;;;5121686;28;20183;-84
2022/10/14 17:39:06;;;;;;;3.47;2.30;;;13.30;99.90;;;;;;5122960;28;20184;-83
2022/10/14 17:41:32;;;;;;;3.60;3.17;;;13.30;99.90;;;;;;5121293;28;20179;-83
2022/10/14 17:44:00;;;;;;;6.10;3.80;;;13.30;99.90;;;;;;5121017;28;20245;-83
2022/10/14 17:46:28;;;;;;;4.40;4.00;;;13.40;99.90;;;;;;5122578;28;20519;-83
2022/10/14 17:48:59;;;;;;;5.10;2.50;;;13.30;99.90;;;;;;5120554;28;20282;-82
2022/10/14 17:51:26;;;;;;;7.60;3.03;;;13.30;99.90;;;;;;5119703;28;20176;-85
2022/10/14 17:54:01;;;;;;;3.63;2.50;;;13.30;99.90;;;;;;5122096;28;20179;-83
2022/10/14 17:56:28;;;;;;;5.63;2.80;;;13.30;99.90;;;;;;5121646;28;20163;-83
2022/10/14 17:58:56;;;;;;;6.00;3.20;;;13.30;99.90;;;;;;5121875;28;20671;-84
2022/10/14 18:01:22;;;;;;;7.87;6.10;;;13.30;99.90;;;;;;5120628;28;20267;-84
2022/10/14 18:03:48;;;;;;;10.37;5.00;;;13.30;99.90;;;;;;5123656;28;20202;-83
2022/10/14 18:06:25;;;;;;;14.40;9.10;;;13.20;99.90;;;;;;5120122;28;20176;-83
2022/10/14 18:08:54;;;;;;;60.60;33.43;;;13.30;99.90;;;;;;5121338;28;20202;-84
2022/10/14 18:11:21;;;;;;;29.10;19.23;;;13.20;99.90;;;;;;5121593;28;20174;-83
2022/10/14 18:13:55;;;;;;;16.23;11.47;;;13.20;99.90;;;;;;5122043;28;20179;-83
2022/10/14 18:16:25;;;;;;;12.33;9.17;;;13.20;99.90;;;;;;5121326;28;20171;-84
2022/10/14 18:18:52;;;;;;;5.93;4.50;;;13.20;99.90;;;;;;5121107;28;20199;-84
2022/10/14 18:21:19;;;;;;;5.47;3.57;;;13.20;99.90;;;;;;5122499;28;20168;-85
2022/10/14 18:23:44;;;;;;;6.37;3.97;;;13.20;99.90;;;;;;5122167;28;20183;-83
2022/10/14 18:26:13;;;;;;;4.80;3.67;;;13.10;99.90;;;;;;5122928;28;20172;-83
2022/10/14 18:28:44;;;;;;;4.47;3.70;;;13.10;99.90;;;;;;5122845;28;20227;-85
2022/10/14 18:31:25;;;;;;;6.40;4.10;;;13.10;99.90;;;;;;5121321;28;20186;-83
2022/10/14 18:33:53;;;;;;;6.50;5.03;;;13.10;99.90;;;;;;5123346;28;20206;-83
2022/10/14 18:36:21;;;;;;;5.80;4.17;;;13.00;99.90;;;;;;5121692;28;20167;-84
2022/10/14 18:38:59;;;;;;;7.20;4.00;;;13.00;99.90;;;;;;5121257;28;20187;-83
2022/10/14 18:41:26;;;;;;;3.97;3.00;;;13.00;99.90;;;;;;5122554;28;20591;-83
2022/10/14 18:43:53;;;;;;;2.83;2.40;;;13.00;99.90;;;;;;5118462;28;20665;-83
2022/10/14 18:46:21;;;;;;;4.57;2.60;;;13.00;99.90;;;;;;5121868;28;20214;-82
2022/10/14 18:48:53;;;;;;;4.80;2.30;;;12.90;99.90;;;;;;5120941;28;20735;-84
2022/10/14 18:51:24;;;;;;;3.40;2.70;;;13.00;99.90;;;;;;5123076;28;20171;-83
2022/10/14 18:53:51;;;;;;;4.30;2.57;;;13.00;99.90;;;;;;5123282;28;20609;-83
2022/10/14 18:56:20;;;;;;;2.97;2.43;;;13.00;99.90;;;;;;5120847;28;20211;-83
2022/10/14 18:58:48;;;;;;;7.20;2.40;;;12.90;99.90;;;;;;5120426;28;20196;-83
2022/10/14 19:01:15;;;;;;;4.03;2.50;;;13.00;99.90;;;;;;5123131;28;20171;-83
2022/10/14 19:03:42;;;;;;;4.60;2.43;;;13.00;99.90;;;;;;5122265;28;20182;-83
2022/10/14 19:06:13;;;;;;;3.63;2.87;;;13.00;99.90;;;;;;5122913;28;20205;-83
2022/10/14 19:08:40;;;;;;;3.17;2.53;;;12.90;99.90;;;;;;5124403;28;20295;-82
2022/10/14 19:11:09;;;;;;;2.63;2.00;;;12.90;99.90;;;;;;5123231;28;20178;-85
2022/10/14 19:13:35;;;;;;;3.40;2.13;;;12.90;99.90;;;;;;5125375;28;20174;-83
2022/10/14 19:16:07;;;;;;;2.00;1.63;;;12.90;99.90;;;;;;5126323;28;20172;-85
2022/10/14 19:18:33;;;;;;;1.83;1.67;;;12.90;99.90;;;;;;5127838;28;20192;-80
2022/10/14 19:21:09;;;;;;;3.10;2.30;;;12.90;99.90;;;;;;5134954;28;20179;-80
2022/10/14 19:23:36;;;;;;;3.90;2.83;;;12.90;99.90;;;;;;5136969;28;20186;-80
2022/10/14 19:26:10;;;;;;;3.43;2.43;;;12.90;99.90;;;;;;5129412;28;20187;-85
2022/10/14 19:28:36;;;;;;;4.50;2.80;;;12.90;99.90;;;;;;5122446;28;20218;-85
2022/10/14 19:31:10;;;;;;;3.30;3.00;;;12.90;99.90;;;;;;5123333;28;20183;-85
2022/10/14 19:33:41;;;;;;;3.90;2.93;;;12.90;99.90;;;;;;5120545;28;20250;-83
2022/10/14 19:36:09;;;;;;;4.30;2.87;;;12.90;99.90;;;;;;5118561;28;20175;-83
2022/10/14 19:38:36;;;;;;;4.37;2.57;;;12.80;99.90;;;;;;5118358;28;20195;-83
2022/10/14 19:41:03;;;;;;;4.03;2.30;;;12.80;99.90;;;;;;5118965;28;20176;-83
2022/10/14 19:43:29;;;;;;;2.30;1.93;;;12.80;99.90;;;;;;5117024;28;20179;-84
2022/10/14 19:45:55;;;;;;;3.90;2.50;;;12.80;99.90;;;;;;5115975;28;20567;-83
2022/10/14 19:48:21;;;;;;;4.13;3.00;;;12.70;99.90;;;;;;5117215;28;20665;-83
2022/10/14 19:50:47;;;;;;;3.40;3.03;;;12.70;99.90;;;;;;5116555;28;20182;-83
2022/10/14 19:53:13;;;;;;;6.57;3.30;;;12.60;99.90;;;;;;5117782;28;20207;-85
2022/10/14 19:55:39;;;;;;;4.83;3.57;;;12.70;99.90;;;;;;5120776;28;20175;-83
2022/10/14 19:58:05;;;;;;;4.60;2.97;;;12.60;99.90;;;;;;5119777;28;20204;-85
2022/10/14 20:00:33;;;;;;;2.83;2.33;;;12.70;99.90;;;;;;5117141;28;20248;-84
2022/10/14 20:02:59;;;;;;;4.23;2.83;;;12.60;99.90;;;;;;5119120;28;20255;-84
2022/10/14 20:05:27;;;;;;;3.87;2.80;;;12.60;99.90;;;;;;5116754;28;20202;-83
2022/10/14 20:07:53;;;;;;;4.47;2.60;;;12.60;99.90;;;;;;5116425;28;20214;-83
